createdAt,value
2023-03-29T00:02:20.096Z,58.90
2023-03-29T00:04:47.430Z,59.43
2023-03-29T00:07:14.844Z,59.42
2023-03-29T00:09:42.546Z,58.74
2023-03-29T00:12:11.672Z,58.80
2023-03-29T00:14:38.923Z,58.84
2023-03-29T00:17:06.473Z,58.67
2023-03-29T00:19:36.747Z,58.39
2023-03-29T00:22:07.991Z,59.86
2023-03-29T00:24:36.209Z,59.80
2023-03-29T00:27:03.535Z,59.73
2023-03-29T00:29:30.777Z,59.12
2023-03-29T00:31:58.635Z,59.18
2023-03-29T00:34:30.776Z,59.17
2023-03-29T00:36:58.808Z,59.36
2023-03-29T00:39:26.589Z,59.22
2023-03-29T00:41:56.047Z,58.82
2023-03-29T00:44:57.980Z,58.27
2023-03-29T00:47:41.598Z,58.03
2023-03-29T00:50:15.809Z,58.10
2023-03-29T00:52:46.347Z,57.48
2023-03-29T00:55:18.889Z,56.75
2023-03-29T00:57:46.946Z,56.88
2023-03-29T01:00:18.157Z,57.37
2023-03-29T01:02:51.181Z,57.52
2023-03-29T01:05:22.698Z,57.70
2023-03-29T01:07:58.240Z,57.04
2023-03-29T01:10:31.883Z,57.51
2023-03-29T01:13:05.179Z,57.62
2023-03-29T01:15:33.266Z,57.35
2023-03-29T01:18:02.034Z,57.28
2023-03-29T01:20:44.982Z,57.26
2023-03-29T01:23:31.688Z,57.23
2023-03-29T01:26:13.926Z,56.81
2023-03-29T01:28:51.786Z,56.92
2023-03-29T01:31:27.352Z,57.61
2023-03-29T01:34:06.028Z,57.74
2023-03-29T01:36:41.665Z,58.26
2023-03-29T01:39:09.165Z,58.18
2023-03-29T01:42:01.998Z,58.34
2023-03-29T01:44:41.538Z,57.79
2023-03-29T01:47:13.238Z,57.87
2023-03-29T01:49:45.339Z,58.24
2023-03-29T01:52:20.723Z,58.27
2023-03-29T01:54:55.225Z,58.53
2023-03-29T01:57:24.977Z,58.97
2023-03-29T01:59:54.722Z,58.54
2023-03-29T02:02:24.116Z,58.31
2023-03-29T02:04:54.080Z,58.13
2023-03-29T02:07:24.833Z,59.14
2023-03-29T02:09:53.760Z,58.83
2023-03-29T02:12:22.226Z,59.29
2023-03-29T02:14:49.583Z,59.92
2023-03-29T02:17:22.215Z,59.58
2023-03-29T02:19:55.825Z,59.16
2023-03-29T02:22:33.362Z,59.59
2023-03-29T02:25:01.783Z,59.24
2023-03-29T02:27:29.966Z,59.78
2023-03-29T02:29:58.341Z,59.70
2023-03-29T02:32:31.001Z,60.20
2023-03-29T02:35:01.939Z,60.25
2023-03-29T02:37:31.347Z,60.54
2023-03-29T02:39:59.545Z,60.31
2023-03-29T02:42:28.647Z,60.36
2023-03-29T02:44:57.793Z,60.01
2023-03-29T02:47:31.552Z,60.61
2023-03-29T02:50:02.069Z,60.75
2023-03-29T02:52:35.640Z,60.71
2023-03-29T02:55:04.267Z,60.95
2023-03-29T02:57:32.468Z,61.21
2023-03-29T03:00:01.183Z,61.52
2023-03-29T03:02:29.651Z,61.70
2023-03-29T03:04:57.804Z,61.43
2023-03-29T03:07:25.221Z,60.98
2023-03-29T03:09:52.757Z,61.39
2023-03-29T03:12:20.175Z,62.57
2023-03-29T03:14:47.445Z,62.94
2023-03-29T03:17:14.680Z,62.24
2023-03-29T03:19:42.676Z,62.07
2023-03-29T03:22:11.701Z,62.44
2023-03-29T03:24:38.984Z,63.03
2023-03-29T03:27:06.473Z,63.23
2023-03-29T03:29:33.779Z,62.77
2023-03-29T03:32:16.266Z,63.06
2023-03-29T03:35:11.635Z,62.83
2023-03-29T03:37:40.900Z,62.27
2023-03-29T03:40:11.643Z,61.79
2023-03-29T03:42:41.054Z,62.54
2023-03-29T03:45:10.622Z,62.12
2023-03-29T03:47:52.580Z,61.96
2023-03-29T03:50:25.266Z,61.81
2023-03-29T03:52:52.785Z,61.95
2023-03-29T03:55:22.084Z,62.53
2023-03-29T03:58:03.258Z,63.20
2023-03-29T04:00:31.046Z,62.71
2023-03-29T04:03:17.203Z,62.67
2023-03-29T04:05:45.910Z,62.12
2023-03-29T04:08:14.989Z,62.07
2023-03-29T04:11:01.205Z,61.82
2023-03-29T04:13:37.250Z,62.01
2023-03-29T04:16:28.578Z,63.17
2023-03-29T04:19:00.749Z,63.26
2023-03-29T04:21:29.050Z,63.89
2023-03-29T04:23:56.324Z,63.68
2023-03-29T04:26:23.952Z,63.00
2023-03-29T04:28:57.429Z,63.66
2023-03-29T04:31:36.048Z,63.27
2023-03-29T04:34:14.797Z,63.62
2023-03-29T04:36:43.609Z,63.18
2023-03-29T04:39:20.507Z,63.23
2023-03-29T04:41:52.890Z,63.41
2023-03-29T04:44:24.079Z,63.16
2023-03-29T04:46:51.463Z,63.43
2023-03-29T04:49:37.741Z,63.44
2023-03-29T04:52:09.843Z,63.42
2023-03-29T04:54:38.116Z,63.81
2023-03-29T04:57:21.905Z,63.35
2023-03-29T05:00:15.344Z,65.84
2023-03-29T05:03:11.486Z,68.43
2023-03-29T05:05:43.570Z,70.19
2023-03-29T05:08:12.292Z,72.82
2023-03-29T05:10:59.688Z,72.41
2023-03-29T05:13:28.844Z,72.81
2023-03-29T05:15:57.249Z,72.37
2023-03-29T05:18:25.376Z,72.37
2023-03-29T05:20:54.177Z,71.81
2023-03-29T05:23:22.704Z,70.89
2023-03-29T05:26:09.961Z,71.95
2023-03-29T05:28:39.520Z,71.78
2023-03-29T05:31:08.509Z,71.34
2023-03-29T05:33:38.278Z,70.60
2023-03-29T05:36:13.653Z,70.83
2023-03-29T05:38:46.810Z,70.20
2023-03-29T05:41:15.816Z,69.74
2023-03-29T05:44:01.744Z,69.88
2023-03-29T05:46:30.203Z,69.48
2023-03-29T05:49:01.791Z,69.59
2023-03-29T05:51:47.274Z,69.47
2023-03-29T05:54:15.767Z,69.92
2023-03-29T05:56:43.485Z,69.90
2023-03-29T05:59:11.400Z,70.03
2023-03-29T06:01:40.102Z,69.67
2023-03-29T06:04:12.604Z,70.21
2023-03-29T06:06:46.944Z,70.03
2023-03-29T06:09:14.324Z,69.54
2023-03-29T06:11:52.901Z,69.97
2023-03-29T06:14:33.911Z,70.17
2023-03-29T06:17:11.008Z,69.91
2023-03-29T06:19:38.870Z,69.61
2023-03-29T06:22:06.234Z,70.48
2023-03-29T06:24:34.875Z,70.30
2023-03-29T06:27:08.812Z,70.04
2023-03-29T06:29:36.118Z,70.11
2023-03-29T06:32:03.957Z,70.42
2023-03-29T06:34:50.017Z,70.10
2023-03-29T06:37:32.987Z,71.04
2023-03-29T06:40:13.423Z,71.18
2023-03-29T06:42:46.102Z,71.71
2023-03-29T06:45:34.547Z,71.42
2023-03-29T06:48:06.327Z,71.53
2023-03-29T06:50:34.447Z,71.13
2023-03-29T06:53:10.336Z,71.23
2023-03-29T06:55:39.063Z,71.12
2023-03-29T06:58:23.188Z,70.47
2023-03-29T07:00:50.850Z,70.50
2023-03-29T07:03:30.437Z,70.03
2023-03-29T07:06:04.300Z,69.89
2023-03-29T07:08:35.266Z,69.62
2023-03-29T07:11:07.128Z,69.56
2023-03-29T07:13:46.194Z,69.92
2023-03-29T07:16:18.086Z,70.06
2023-03-29T07:19:08.929Z,69.96
2023-03-29T07:21:59.303Z,69.74
2023-03-29T07:24:38.317Z,69.02
2023-03-29T07:27:05.738Z,68.65
2023-03-29T07:29:34.010Z,68.64
2023-03-29T07:32:01.322Z,68.54
2023-03-29T07:34:43.960Z,68.38
2023-03-29T07:37:20.934Z,68.26
2023-03-29T07:39:48.274Z,68.38
2023-03-29T07:42:28.865Z,67.85
2023-03-29T07:44:56.393Z,67.69
2023-03-29T07:47:24.824Z,67.66
2023-03-29T07:49:52.131Z,67.16
2023-03-29T07:52:19.433Z,67.55
2023-03-29T07:54:46.732Z,67.41
2023-03-29T07:57:44.203Z,67.22
2023-03-29T08:00:16.738Z,66.83
2023-03-29T08:02:54.888Z,67.00
2023-03-29T08:05:33.847Z,67.00
2023-03-29T08:08:10.721Z,66.36
2023-03-29T08:11:04.496Z,66.56
2023-03-29T08:13:44.629Z,66.24
2023-03-29T08:16:27.319Z,65.77
2023-03-29T08:19:14.789Z,66.70
2023-03-29T08:22:00.716Z,66.79
2023-03-29T08:24:34.611Z,67.19
2023-03-29T08:27:06.207Z,67.18
2023-03-29T08:29:33.861Z,66.09
2023-03-29T08:32:01.175Z,65.74
2023-03-29T08:34:31.706Z,65.88
2023-03-29T08:37:21.924Z,66.44
2023-03-29T08:39:51.588Z,66.49
2023-03-29T08:42:39.021Z,68.00
2023-03-29T08:45:16.220Z,67.29
2023-03-29T08:48:08.419Z,65.96
2023-03-29T08:50:42.546Z,65.73
2023-03-29T08:53:24.810Z,65.19
2023-03-29T08:56:20.985Z,65.66
2023-03-29T08:59:26.389Z,65.82
2023-03-29T09:01:56.000Z,65.63
2023-03-29T09:04:29.583Z,65.61
2023-03-29T09:07:20.120Z,65.68
2023-03-29T09:09:48.102Z,65.66
2023-03-29T09:12:49.985Z,65.47
2023-03-29T09:15:56.799Z,65.02
2023-03-29T09:19:19.401Z,63.50
2023-03-29T09:21:59.288Z,64.92
2023-03-29T09:24:46.748Z,64.84
2023-03-29T09:27:27.360Z,64.36
2023-03-29T09:30:27.964Z,63.74
2023-03-29T09:33:23.369Z,63.79
2023-03-29T09:36:21.224Z,62.50
2023-03-29T09:38:54.217Z,63.02
2023-03-29T09:41:54.132Z,63.92
2023-03-29T09:44:31.509Z,63.27
2023-03-29T09:47:24.013Z,63.15
2023-03-29T09:49:57.076Z,63.13
2023-03-29T09:52:24.558Z,62.24
2023-03-29T09:55:14.320Z,61.97
2023-03-29T09:57:59.102Z,61.81
2023-03-29T10:00:27.739Z,62.61
2023-03-29T10:02:57.783Z,62.07
2023-03-29T10:05:38.659Z,61.96
2023-03-29T10:08:29.676Z,61.56
2023-03-29T10:11:00.725Z,60.94
2023-03-29T10:13:31.325Z,60.72
2023-03-29T10:16:17.249Z,60.40
2023-03-29T10:18:44.788Z,60.30
2023-03-29T10:21:17.148Z,59.76
2023-03-29T10:23:44.649Z,58.75
2023-03-29T10:26:34.510Z,59.59
2023-03-29T10:29:03.571Z,59.42
2023-03-29T10:31:33.122Z,58.44
2023-03-29T10:34:05.552Z,58.17
2023-03-29T10:36:33.171Z,56.80
2023-03-29T10:39:05.921Z,55.92
2023-03-29T10:41:35.837Z,55.12
2023-03-29T10:44:03.697Z,54.58
2023-03-29T10:46:33.799Z,53.96
2023-03-29T10:49:10.327Z,53.67
2023-03-29T10:51:37.693Z,52.11
2023-03-29T10:54:07.157Z,50.91
2023-03-29T10:56:40.265Z,50.04
2023-03-29T10:59:24.085Z,49.09
2023-03-29T11:02:01.089Z,47.24
2023-03-29T11:04:41.354Z,47.23
2023-03-29T11:07:14.708Z,45.86
2023-03-29T11:09:50.251Z,44.95
2023-03-29T11:12:40.474Z,44.07
2023-03-29T11:15:21.438Z,44.19
2023-03-29T11:18:26.261Z,43.99
2023-03-29T11:21:18.374Z,43.93
2023-03-29T11:24:17.976Z,44.15
2023-03-29T11:26:54.858Z,44.60
2023-03-29T11:29:28.765Z,44.41
2023-03-29T11:32:15.420Z,44.60
2023-03-29T11:35:01.607Z,44.71
2023-03-29T11:37:37.866Z,43.69
2023-03-29T11:40:31.619Z,43.54
2023-03-29T11:43:02.763Z,43.88
2023-03-29T11:45:39.853Z,43.21
2023-03-29T11:48:14.103Z,43.21
2023-03-29T11:50:48.705Z,42.68
2023-03-29T11:53:56.692Z,42.53
2023-03-29T11:56:33.715Z,41.98
2023-03-29T11:59:07.535Z,41.31
2023-03-29T12:01:38.730Z,41.11
2023-03-29T12:04:11.359Z,41.04
2023-03-29T12:06:54.694Z,41.09
2023-03-29T12:09:42.367Z,41.39
2023-03-29T12:12:27.934Z,41.07
2023-03-29T12:15:11.278Z,40.39
2023-03-29T12:17:44.226Z,39.94
2023-03-29T12:20:28.331Z,40.18
2023-03-29T12:22:59.133Z,40.63
2023-03-29T12:25:30.975Z,40.70
2023-03-29T12:28:41.340Z,40.58
2023-03-29T12:31:14.481Z,40.03
2023-03-29T12:33:59.952Z,40.21
2023-03-29T12:36:48.474Z,39.54
2023-03-29T12:39:36.824Z,39.14
2023-03-29T12:42:33.249Z,38.37
2023-03-29T12:45:39.892Z,37.29
2023-03-29T12:48:28.023Z,37.33
2023-03-29T12:51:08.426Z,37.85
2023-03-29T12:53:51.058Z,37.25
2023-03-29T12:56:24.873Z,37.97
2023-03-29T12:59:36.332Z,38.43
2023-03-29T13:02:27.590Z,39.37
2023-03-29T13:04:57.193Z,39.09
2023-03-29T13:07:28.033Z,40.33
2023-03-29T13:10:03.851Z,38.59
2023-03-29T13:12:46.343Z,38.13
2023-03-29T13:15:23.297Z,37.75
2023-03-29T13:18:14.328Z,37.39
2023-03-29T13:21:04.163Z,38.53
2023-03-29T13:23:41.188Z,38.56
2023-03-29T13:26:46.315Z,38.85
2023-03-29T13:29:33.713Z,38.65
2023-03-29T13:32:06.539Z,38.27
2023-03-29T13:34:50.692Z,37.96
2023-03-29T13:37:47.385Z,37.87
2023-03-29T13:40:26.544Z,36.82
2023-03-29T13:43:30.930Z,36.67
2023-03-29T13:45:58.593Z,36.74
2023-03-29T13:48:46.441Z,36.81
2023-03-29T13:51:13.684Z,36.59
2023-03-29T13:53:54.350Z,36.89
2023-03-29T13:56:28.932Z,36.15
2023-03-29T13:59:10.336Z,36.00
2023-03-29T14:01:50.676Z,35.84
2023-03-29T14:04:24.927Z,35.65
2023-03-29T14:06:56.210Z,35.60
2023-03-29T14:09:28.328Z,35.64
2023-03-29T14:11:56.837Z,36.06
2023-03-29T14:14:26.206Z,36.58
2023-03-29T14:16:55.504Z,36.34
2023-03-29T14:19:34.340Z,36.40
2023-03-29T14:22:02.796Z,35.93
2023-03-29T14:24:40.406Z,35.94
2023-03-29T14:27:10.130Z,36.56
2023-03-29T14:29:37.421Z,36.31
2023-03-29T14:32:16.812Z,36.27
2023-03-29T14:34:48.252Z,36.40
2023-03-29T14:37:23.989Z,36.72
2023-03-29T14:39:51.400Z,36.82
2023-03-29T14:42:21.372Z,36.95
2023-03-29T14:44:50.191Z,36.34
2023-03-29T14:47:28.655Z,36.68
2023-03-29T14:50:00.526Z,36.60
2023-03-29T14:52:29.622Z,36.64
2023-03-29T14:54:59.354Z,37.01
2023-03-29T14:57:29.231Z,37.20
2023-03-29T15:00:02.260Z,37.23
2023-03-29T15:02:32.478Z,37.67
2023-03-29T15:05:06.273Z,37.92
2023-03-29T15:07:36.448Z,37.96
2023-03-29T15:10:07.955Z,37.18
2023-03-29T15:12:37.960Z,37.52
2023-03-29T15:15:07.699Z,37.78
2023-03-29T15:17:50.216Z,37.15
2023-03-29T15:20:24.174Z,37.75
2023-03-29T15:22:56.599Z,37.94
2023-03-29T15:25:27.480Z,37.22
2023-03-29T15:27:59.541Z,37.56
2023-03-29T15:30:34.384Z,37.91
2023-03-29T15:33:09.316Z,38.19
2023-03-29T15:35:38.148Z,37.83
2023-03-29T15:38:06.991Z,37.55
2023-03-29T15:40:34.424Z,37.60
2023-03-29T15:43:01.915Z,37.85
2023-03-29T15:45:29.399Z,37.62
2023-03-29T15:47:57.059Z,38.09
2023-03-29T15:50:24.680Z,38.01
2023-03-29T15:52:52.887Z,38.34
2023-03-29T15:55:20.814Z,38.05
2023-03-29T15:57:48.785Z,37.76
2023-03-29T16:00:17.986Z,37.85
2023-03-29T16:02:45.372Z,39.09
2023-03-29T16:05:13.164Z,38.75
2023-03-29T16:07:40.503Z,39.04
2023-03-29T16:10:09.125Z,38.98
2023-03-29T16:12:38.475Z,38.55
2023-03-29T16:15:12.291Z,38.17
2023-03-29T16:17:39.696Z,38.96
2023-03-29T16:20:08.675Z,39.00
2023-03-29T16:22:37.100Z,38.74
2023-03-29T16:25:06.673Z,38.12
2023-03-29T16:27:34.004Z,38.74
2023-03-29T16:30:01.335Z,39.30
2023-03-29T16:32:28.798Z,39.48
2023-03-29T16:34:58.414Z,39.19
2023-03-29T16:37:25.859Z,38.21
2023-03-29T16:39:53.765Z,38.59
2023-03-29T16:42:21.550Z,39.49
2023-03-29T16:44:49.078Z,39.75
2023-03-29T16:47:16.602Z,39.52
2023-03-29T16:49:45.838Z,40.16
2023-03-29T16:52:14.054Z,39.27
2023-03-29T16:54:42.509Z,39.15
2023-03-29T16:57:10.401Z,40.63
2023-03-29T16:59:38.060Z,40.79
2023-03-29T17:02:05.347Z,40.45
2023-03-29T17:04:32.792Z,40.90
2023-03-29T17:07:00.049Z,40.92
2023-03-29T17:09:29.303Z,41.24
2023-03-29T17:11:57.275Z,40.86
2023-03-29T17:14:25.503Z,40.83
2023-03-29T17:16:53.641Z,40.75
2023-03-29T17:19:21.435Z,40.72
2023-03-29T17:21:49.515Z,41.02
2023-03-29T17:24:17.272Z,40.46
2023-03-29T17:26:45.799Z,40.17
2023-03-29T17:29:13.892Z,40.99
2023-03-29T17:31:47.546Z,41.02
2023-03-29T17:34:16.415Z,40.81
2023-03-29T17:36:45.725Z,41.61
2023-03-29T17:39:15.333Z,41.60
2023-03-29T17:41:42.847Z,41.89
2023-03-29T17:44:10.498Z,41.30
2023-03-29T17:46:38.678Z,41.68
2023-03-29T17:49:09.232Z,42.26
2023-03-29T17:51:36.530Z,42.34
2023-03-29T17:54:06.393Z,42.44
2023-03-29T17:56:35.025Z,42.88
2023-03-29T17:59:07.463Z,42.96
2023-03-29T18:01:36.405Z,43.73
2023-03-29T18:04:06.438Z,43.51
2023-03-29T18:06:33.713Z,43.80
2023-03-29T18:09:01.578Z,43.51
2023-03-29T18:11:29.072Z,44.04
2023-03-29T18:13:59.559Z,44.28
2023-03-29T18:16:27.206Z,44.52
2023-03-29T18:18:54.979Z,44.67
2023-03-29T18:21:22.348Z,44.35
2023-03-29T18:23:52.866Z,44.69
2023-03-29T18:26:22.861Z,44.38
2023-03-29T18:28:51.135Z,44.61
2023-03-29T18:31:19.816Z,44.19
2023-03-29T18:33:47.583Z,44.65
2023-03-29T18:36:15.997Z,44.37
2023-03-29T18:38:43.706Z,44.07
2023-03-29T18:41:12.754Z,44.49
2023-03-29T18:43:41.153Z,44.89
2023-03-29T18:46:08.757Z,44.76
2023-03-29T18:48:39.101Z,45.57
2023-03-29T18:51:08.290Z,45.72
2023-03-29T18:53:36.444Z,45.89
2023-03-29T18:56:04.493Z,45.49
2023-03-29T18:58:32.272Z,45.98
2023-03-29T19:01:04.222Z,46.04
2023-03-29T19:03:32.871Z,45.60
2023-03-29T19:06:01.697Z,45.94
2023-03-29T19:08:29.362Z,46.12
2023-03-29T19:11:05.583Z,46.26
2023-03-29T19:13:33.411Z,46.89
2023-03-29T19:16:00.771Z,46.98
2023-03-29T19:18:28.333Z,47.17
2023-03-29T19:20:56.195Z,47.66
2023-03-29T19:23:28.339Z,47.05
2023-03-29T19:26:01.383Z,47.53
2023-03-29T19:28:29.505Z,47.30
2023-03-29T19:30:58.990Z,46.94
2023-03-29T19:33:26.816Z,45.75
2023-03-29T19:35:54.173Z,45.64
2023-03-29T19:38:21.818Z,47.08
2023-03-29T19:40:50.953Z,46.82
2023-03-29T19:43:18.819Z,46.71
2023-03-29T19:45:47.529Z,46.42
2023-03-29T19:48:22.519Z,46.63
2023-03-29T19:50:51.482Z,45.73
2023-03-29T19:53:18.885Z,45.71
2023-03-29T19:55:46.236Z,45.99
2023-03-29T19:58:13.492Z,46.29
2023-03-29T20:00:41.768Z,45.96
2023-03-29T20:03:09.998Z,45.93
2023-03-29T20:05:38.603Z,46.82
2023-03-29T20:08:07.169Z,46.61
2023-03-29T20:10:35.636Z,46.31
2023-03-29T20:13:03.567Z,46.33
2023-03-29T20:15:31.202Z,46.10
2023-03-29T20:18:00.426Z,46.54
2023-03-29T20:20:28.545Z,46.24
2023-03-29T20:23:04.587Z,46.36
2023-03-29T20:25:34.246Z,46.72
2023-03-29T20:28:01.511Z,46.63
2023-03-29T20:30:28.721Z,46.46
2023-03-29T20:32:56.079Z,46.29
2023-03-29T20:35:23.333Z,46.67
2023-03-29T20:37:50.748Z,46.06
2023-03-29T20:40:18.021Z,45.73
2023-03-29T20:42:46.395Z,46.14
2023-03-29T20:45:18.668Z,45.52
2023-03-29T20:47:50.462Z,46.14
2023-03-29T20:50:18.987Z,46.44
2023-03-29T20:52:46.403Z,46.56
2023-03-29T20:55:16.695Z,46.68
2023-03-29T20:57:44.019Z,46.76
2023-03-29T21:00:12.023Z,46.83
2023-03-29T21:02:39.508Z,46.80
2023-03-29T21:05:08.602Z,47.69
2023-03-29T21:07:36.462Z,47.49
2023-03-29T21:10:04.221Z,47.47
2023-03-29T21:12:31.606Z,47.83
2023-03-29T21:14:58.876Z,47.46
2023-03-29T21:17:26.999Z,46.95
2023-03-29T21:19:55.076Z,46.77
2023-03-29T21:22:23.253Z,46.77
2023-03-29T21:24:51.061Z,46.92
2023-03-29T21:27:18.381Z,46.98
2023-03-29T21:29:45.644Z,46.32
2023-03-29T21:32:12.878Z,46.55
2023-03-29T21:34:40.548Z,46.49
2023-03-29T21:37:07.967Z,46.31
2023-03-29T21:39:35.484Z,45.82
2023-03-29T21:42:02.902Z,46.37
2023-03-29T21:44:32.583Z,46.17
2023-03-29T21:47:02.112Z,45.58
2023-03-29T21:49:29.358Z,44.95
2023-03-29T21:51:56.938Z,45.30
2023-03-29T21:54:24.260Z,45.86
2023-03-29T21:56:51.729Z,45.29
2023-03-29T21:59:19.046Z,45.60
2023-03-29T22:01:46.519Z,46.33
2023-03-29T22:04:22.609Z,46.27
2023-03-29T22:06:56.711Z,46.04
2023-03-29T22:09:26.741Z,46.58
2023-03-29T22:11:53.984Z,46.31
2023-03-29T22:14:22.079Z,46.91
2023-03-29T22:16:49.356Z,47.48
2023-03-29T22:19:16.589Z,47.65
2023-03-29T22:21:44.129Z,47.87
2023-03-29T22:24:11.468Z,48.54
2023-03-29T22:26:38.729Z,49.55
2023-03-29T22:29:06.005Z,50.65
2023-03-29T22:31:33.287Z,51.43
2023-03-29T22:34:02.025Z,52.32
2023-03-29T22:36:31.118Z,52.59
2023-03-29T22:38:58.469Z,54.15
2023-03-29T22:41:27.668Z,53.69
2023-03-29T22:43:56.925Z,53.50
2023-03-29T22:46:24.823Z,53.37
2023-03-29T22:48:52.359Z,53.46
2023-03-29T22:51:20.378Z,53.25
2023-03-29T22:53:47.686Z,53.25
2023-03-29T22:56:16.011Z,53.37
2023-03-29T22:58:43.615Z,53.13
2023-03-29T23:01:13.876Z,52.93
2023-03-29T23:03:41.799Z,53.10
2023-03-29T23:06:09.112Z,52.96
2023-03-29T23:08:36.392Z,52.79
2023-03-29T23:11:04.063Z,52.53
2023-03-29T23:13:33.382Z,50.70
2023-03-29T23:16:02.355Z,51.06
2023-03-29T23:18:31.070Z,50.99
2023-03-29T23:20:58.971Z,50.97
2023-03-29T23:23:26.922Z,51.33
2023-03-29T23:25:55.857Z,51.01
2023-03-29T23:28:27.053Z,50.75
2023-03-29T23:31:00.337Z,50.33
2023-03-29T23:33:33.676Z,49.38
2023-03-29T23:36:05.515Z,49.43
2023-03-29T23:38:34.362Z,49.33
2023-03-29T23:41:03.928Z,49.76
2023-03-29T23:43:33.686Z,49.48
2023-03-29T23:46:03.047Z,49.07
2023-03-29T23:48:31.620Z,49.09
2023-03-29T23:50:58.948Z,49.26
2023-03-29T23:53:28.993Z,49.99
2023-03-29T23:55:59.440Z,50.99
2023-03-29T23:58:30.353Z,51.64
